Beaver, UT

2:03 AM MDT on October 22, 2014 (GMT -0600)
West Beaver City | Change Station
CLOSE
Current Station
Personal Weather Station
Location: Beaver, UT
Elevation: 5912 ft
Nearby Weather Stations

Elev 5912 ft 38.28 °N, 112.65 °W | Updated 3 minutes ago

Clear
Clear
40.9 °F
Feels Like 41 °F
N
2.0
Wind Variable Wind from North
Gusts 2.0 mph

Today
High -- | Low -- °F
--% Chance of Precip.
Yesterday
High -- | Low -- °F
Precip. -- in
7:46 AM 6:43 PM
Waning Crescent, 3% visible
Pressure 29.97 in
Visibility 10.0 miles
Clouds Clear
Windchill 41 °F
Dew Point 34 °F
Humidity 76%
Rainfall 0.00 in
Snow Depth Not available.
UV 0 out of 12
Pollen 4.20 out of 12
Air Quality Not available.
Flu Activity Sporadic
METAR KMLF 220752Z AUTO 34008KT 10SM CLR 07/M03 A3009 RMK AO2 SLP148 T00721033 TSNO

More Conditions Fewer Conditions

Pressure 29.97 in
Visibility 10.0 miles
Clouds Clear
Windchill 41 °F
Dew Point 34 °F
Humidity 76%
Rainfall 0.00 in
Snow Depth Not available.
UV 0 out of 12
Pollen 4.20 out of 12
Air Quality Not available.
Flu Activity Sporadic
METAR KMLF 220752Z AUTO 34008KT 10SM CLR 07/M03 A3009 RMK AO2 SLP148 T00721033 TSNO

More Conditions Fewer Conditions

10-Day Weather Forecast

Almanac

Astronomy

Oct. 22, 2014 Rise Set
Actual Time 7:46 AM MDT 6:43 PM MDT
Civil Twilight 7:19 AM MDT 7:10 PM MDT
Nautical Twilight 6:48 AM MDT 7:40 PM MDT
Astronomical Twilight 6:18 AM MDT 8:11 PM MDT
Moon 6:32 AM MDT 6:11 PM MDT
Length of Visible Light 11h 50m
Length of Day
10h 56m
Tomorrow will be 2m 19s shorter.
Waning Crescent, 3% of the Moon is Illuminated
Today
Waning Crescent
Oct 23
New
Oct 30
First Quarter
Nov 6
Full
Nov 14
Last Quarter

Today's Extremes

State Highs State Lows

Community

WunderPhotos

Upload Photos

1,763,889 photos uploaded!

Nearby

Snow Depth

Station Depth Elevation
Merchant Valley 1 in 8750 ft
Big Flat 0 in 10290 ft
Kimberly Mine 0 in 9300 ft
Box Creek 1 in 9800 ft
Clayton Springs 0 in 10000 ft

Earthquake Activity

City Distance Mag. Time & Date
No recent earthquake activity has been reported nearby.
Minimum magnitude displayed is 2.5.

Coastal Water Temperatures

Place Temperature
No Stations Reporting

Nearby Weather Stations